<?xml version="1.0" encoding="utf-8"?>
<gpx xmlns:xsi="http://www.w3.org/2001/XMLSchema-instance" xmlns:xsd="http://www.w3.org/2001/XMLSchema" version="1.1" creator="Shapelink.com" xmlns="http://www.topografix.com/GPX/1/1" xmlns:gpxtpx="http://www.garmin.com/xmlschemas/TrackPointExtension/v1">
  <metadata>
    <name>Løping 4.68 km, 2012-03-30</name>
    <desc></desc>
    <author><name>Mikael Blom</name></author> 
    <time>2012-03-30T17:42:27Z</time>
  </metadata>
  <trk>
    <name>Løping 4.68 km, 2012-03-30</name>
    <trkseg>
      <trkpt lat="59.9854048" lon="17.7381891">
        <ele>49.1646</ele>
        <time>2012-03-30T17:42:27Z</time>
      </trkpt>
      <trkpt lat="59.9854521" lon="17.7382226">
        <ele>44.358</ele>
        <time>2012-03-30T17:42:31Z</time>
      </trkpt>
      <trkpt lat="59.9855816" lon="17.7382958">
        <ele>40.9934</ele>
        <time>2012-03-30T17:42:36Z</time>
      </trkpt>
      <trkpt lat="59.9856769" lon="17.7383696">
        <ele>39.0707</ele>
        <time>2012-03-30T17:42:40Z</time>
      </trkpt>
      <trkpt lat="59.9858204" lon="17.7384358">
        <ele>34.7449</ele>
        <time>2012-03-30T17:42:46Z</time>
      </trkpt>
      <trkpt lat="59.9859545" lon="17.7384918">
        <ele>33.3029</ele>
        <time>2012-03-30T17:42:51Z</time>
      </trkpt>
      <trkpt lat="59.985982" lon="17.7385083">
        <ele>33.7834</ele>
        <time>2012-03-30T17:42:52Z</time>
      </trkpt>
      <trkpt lat="59.9861286" lon="17.7386191">
        <ele>29.9381</ele>
        <time>2012-03-30T17:42:59Z</time>
      </trkpt>
      <trkpt lat="59.9862579" lon="17.7387213">
        <ele>29.9381</ele>
        <time>2012-03-30T17:43:05Z</time>
      </trkpt>
      <trkpt lat="59.9863177" lon="17.7387781">
        <ele>28.4962</ele>
        <time>2012-03-30T17:43:08Z</time>
      </trkpt>
      <trkpt lat="59.9864301" lon="17.738862">
        <ele>28.9769</ele>
        <time>2012-03-30T17:43:13Z</time>
      </trkpt>
      <trkpt lat="59.9865485" lon="17.7389481">
        <ele>30.4188</ele>
        <time>2012-03-30T17:43:18Z</time>
      </trkpt>
      <trkpt lat="59.9866408" lon="17.7390195">
        <ele>32.3416</ele>
        <time>2012-03-30T17:43:22Z</time>
      </trkpt>
      <trkpt lat="59.9867985" lon="17.7391615">
        <ele>36.1868</ele>
        <time>2012-03-30T17:43:29Z</time>
      </trkpt>
      <trkpt lat="59.9868698" lon="17.739233">
        <ele>39.0707</ele>
        <time>2012-03-30T17:43:32Z</time>
      </trkpt>
      <trkpt lat="59.9870258" lon="17.739293">
        <ele>44.8386</ele>
        <time>2012-03-30T17:43:38Z</time>
      </trkpt>
      <trkpt lat="59.9871683" lon="17.739294">
        <ele>51.0872</ele>
        <time>2012-03-30T17:43:44Z</time>
      </trkpt>
      <trkpt lat="59.987308" lon="17.7392464">
        <ele>53.0098</ele>
        <time>2012-03-30T17:43:50Z</time>
      </trkpt>
      <trkpt lat="59.9873957" lon="17.7392308">
        <ele>52.5292</ele>
        <time>2012-03-30T17:43:54Z</time>
      </trkpt>
      <trkpt lat="59.9875356" lon="17.7392264">
        <ele>54.9324</ele>
        <time>2012-03-30T17:44:00Z</time>
      </trkpt>
      <trkpt lat="59.9877095" lon="17.7392288">
        <ele>55.8938</ele>
        <time>2012-03-30T17:44:07Z</time>
      </trkpt>
      <trkpt lat="59.9877952" lon="17.7391989">
        <ele>55.8938</ele>
        <time>2012-03-30T17:44:11Z</time>
      </trkpt>
      <trkpt lat="59.9879282" lon="17.7392026">
        <ele>55.4131</ele>
        <time>2012-03-30T17:44:16Z</time>
      </trkpt>
      <trkpt lat="59.9880075" lon="17.7391886">
        <ele>53.9712</ele>
        <time>2012-03-30T17:44:20Z</time>
      </trkpt>
      <trkpt lat="59.9880901" lon="17.7391616">
        <ele>48.2034</ele>
        <time>2012-03-30T17:44:25Z</time>
      </trkpt>
      <trkpt lat="59.9882043" lon="17.7390917">
        <ele>46.7612</ele>
        <time>2012-03-30T17:44:30Z</time>
      </trkpt>
      <trkpt lat="59.9883095" lon="17.7390482">
        <ele>48.2034</ele>
        <time>2012-03-30T17:44:35Z</time>
      </trkpt>
      <trkpt lat="59.9884553" lon="17.7389933">
        <ele>45.7999</ele>
        <time>2012-03-30T17:44:41Z</time>
      </trkpt>
      <trkpt lat="59.9885491" lon="17.7389307">
        <ele>46.2806</ele>
        <time>2012-03-30T17:44:45Z</time>
      </trkpt>
      <trkpt lat="59.988662" lon="17.7388394">
        <ele>47.2418</ele>
        <time>2012-03-30T17:44:50Z</time>
      </trkpt>
      <trkpt lat="59.9887964" lon="17.7387937">
        <ele>48.684</ele>
        <time>2012-03-30T17:44:55Z</time>
      </trkpt>
      <trkpt lat="59.9889211" lon="17.7387234">
        <ele>50.126</ele>
        <time>2012-03-30T17:45:00Z</time>
      </trkpt>
      <trkpt lat="59.9890071" lon="17.7386525">
        <ele>52.5292</ele>
        <time>2012-03-30T17:45:04Z</time>
      </trkpt>
      <trkpt lat="59.9890978" lon="17.7385887">
        <ele>55.8938</ele>
        <time>2012-03-30T17:45:08Z</time>
      </trkpt>
      <trkpt lat="59.98923" lon="17.7384933">
        <ele>55.4131</ele>
        <time>2012-03-30T17:45:14Z</time>
      </trkpt>
      <trkpt lat="59.9893796" lon="17.7384061">
        <ele>57.8165</ele>
        <time>2012-03-30T17:45:20Z</time>
      </trkpt>
      <trkpt lat="59.9895335" lon="17.7383777">
        <ele>58.2971</ele>
        <time>2012-03-30T17:45:26Z</time>
      </trkpt>
      <trkpt lat="59.9896396" lon="17.7383359">
        <ele>60.2197</ele>
        <time>2012-03-30T17:45:30Z</time>
      </trkpt>
      <trkpt lat="59.9897566" lon="17.7383051">
        <ele>60.7003</ele>
        <time>2012-03-30T17:45:35Z</time>
      </trkpt>
      <trkpt lat="59.9898645" lon="17.7382737">
        <ele>61.6617</ele>
        <time>2012-03-30T17:45:39Z</time>
      </trkpt>
      <trkpt lat="59.9899708" lon="17.7382337">
        <ele>56.8551</ele>
        <time>2012-03-30T17:45:44Z</time>
      </trkpt>
      <trkpt lat="59.9900895" lon="17.7381855">
        <ele>55.8938</ele>
        <time>2012-03-30T17:45:49Z</time>
      </trkpt>
      <trkpt lat="59.9902111" lon="17.7381383">
        <ele>54.9324</ele>
        <time>2012-03-30T17:45:54Z</time>
      </trkpt>
      <trkpt lat="59.9903243" lon="17.7380852">
        <ele>51.5679</ele>
        <time>2012-03-30T17:46:00Z</time>
      </trkpt>
      <trkpt lat="59.9903846" lon="17.7380283">
        <ele>49.6453</ele>
        <time>2012-03-30T17:46:03Z</time>
      </trkpt>
      <trkpt lat="59.9905229" lon="17.7379992">
        <ele>48.2034</ele>
        <time>2012-03-30T17:46:08Z</time>
      </trkpt>
      <trkpt lat="59.9906317" lon="17.7379374">
        <ele>46.7612</ele>
        <time>2012-03-30T17:46:13Z</time>
      </trkpt>
      <trkpt lat="59.9907396" lon="17.7378462">
        <ele>45.7999</ele>
        <time>2012-03-30T17:46:18Z</time>
      </trkpt>
      <trkpt lat="59.9908677" lon="17.7377656">
        <ele>46.7612</ele>
        <time>2012-03-30T17:46:23Z</time>
      </trkpt>
      <trkpt lat="59.9909896" lon="17.7376783">
        <ele>49.6453</ele>
        <time>2012-03-30T17:46:28Z</time>
      </trkpt>
      <trkpt lat="59.9911206" lon="17.7376117">
        <ele>51.5679</ele>
        <time>2012-03-30T17:46:33Z</time>
      </trkpt>
      <trkpt lat="59.9912477" lon="17.7375649">
        <ele>51.5679</ele>
        <time>2012-03-30T17:46:38Z</time>
      </trkpt>
      <trkpt lat="59.9913906" lon="17.7375418">
        <ele>50.6066</ele>
        <time>2012-03-30T17:46:44Z</time>
      </trkpt>
      <trkpt lat="59.9915148" lon="17.7375417">
        <ele>49.6453</ele>
        <time>2012-03-30T17:46:49Z</time>
      </trkpt>
      <trkpt lat="59.9916281" lon="17.7375437">
        <ele>46.2806</ele>
        <time>2012-03-30T17:46:54Z</time>
      </trkpt>
      <trkpt lat="59.9917713" lon="17.7375175">
        <ele>45.3192</ele>
        <time>2012-03-30T17:47:00Z</time>
      </trkpt>
      <trkpt lat="59.9917952" lon="17.7375128">
        <ele>44.8386</ele>
        <time>2012-03-30T17:47:01Z</time>
      </trkpt>
      <trkpt lat="59.9919278" lon="17.7374858">
        <ele>44.358</ele>
        <time>2012-03-30T17:47:07Z</time>
      </trkpt>
      <trkpt lat="59.992042" lon="17.737447">
        <ele>44.358</ele>
        <time>2012-03-30T17:47:12Z</time>
      </trkpt>
      <trkpt lat="59.9921623" lon="17.737376">
        <ele>41.9547</ele>
        <time>2012-03-30T17:47:17Z</time>
      </trkpt>
      <trkpt lat="59.9922795" lon="17.7372766">
        <ele>42.916</ele>
        <time>2012-03-30T17:47:22Z</time>
      </trkpt>
      <trkpt lat="59.9924388" lon="17.7371365">
        <ele>45.3192</ele>
        <time>2012-03-30T17:47:28Z</time>
      </trkpt>
      <trkpt lat="59.9925317" lon="17.7370181">
        <ele>46.7612</ele>
        <time>2012-03-30T17:47:32Z</time>
      </trkpt>
      <trkpt lat="59.9926323" lon="17.7368967">
        <ele>48.2034</ele>
        <time>2012-03-30T17:47:36Z</time>
      </trkpt>
      <trkpt lat="59.9927602" lon="17.7366965">
        <ele>46.7612</ele>
        <time>2012-03-30T17:47:42Z</time>
      </trkpt>
      <trkpt lat="59.9928704" lon="17.7365802">
        <ele>48.684</ele>
        <time>2012-03-30T17:47:46Z</time>
      </trkpt>
      <trkpt lat="59.9929735" lon="17.7363976">
        <ele>51.5679</ele>
        <time>2012-03-30T17:47:51Z</time>
      </trkpt>
      <trkpt lat="59.9930399" lon="17.7362525">
        <ele>50.6066</ele>
        <time>2012-03-30T17:47:55Z</time>
      </trkpt>
      <trkpt lat="59.9931249" lon="17.7360576">
        <ele>49.1646</ele>
        <time>2012-03-30T17:48:00Z</time>
      </trkpt>
      <trkpt lat="59.9932171" lon="17.7358723">
        <ele>50.126</ele>
        <time>2012-03-30T17:48:05Z</time>
      </trkpt>
      <trkpt lat="59.9933479" lon="17.7356643">
        <ele>54.9324</ele>
        <time>2012-03-30T17:48:11Z</time>
      </trkpt>
      <trkpt lat="59.9934638" lon="17.7355459">
        <ele>60.2197</ele>
        <time>2012-03-30T17:48:16Z</time>
      </trkpt>
      <trkpt lat="59.9935927" lon="17.7354821">
        <ele>64.0651</ele>
        <time>2012-03-30T17:48:21Z</time>
      </trkpt>
      <trkpt lat="59.9937419" lon="17.7354755">
        <ele>65.0264</ele>
        <time>2012-03-30T17:48:27Z</time>
      </trkpt>
      <trkpt lat="59.9938641" lon="17.7354774">
        <ele>63.1036</ele>
        <time>2012-03-30T17:48:32Z</time>
      </trkpt>
      <trkpt lat="59.9939423" lon="17.7355096">
        <ele>62.1423</ele>
        <time>2012-03-30T17:48:35Z</time>
      </trkpt>
      <trkpt lat="59.9940744" lon="17.7355371">
        <ele>59.7391</ele>
        <time>2012-03-30T17:48:41Z</time>
      </trkpt>
      <trkpt lat="59.9942137" lon="17.735561">
        <ele>53.0098</ele>
        <time>2012-03-30T17:48:47Z</time>
      </trkpt>
      <trkpt lat="59.9942557" lon="17.7355837">
        <ele>50.126</ele>
        <time>2012-03-30T17:48:49Z</time>
      </trkpt>
      <trkpt lat="59.9944011" lon="17.7356485">
        <ele>47.7225</ele>
        <time>2012-03-30T17:48:55Z</time>
      </trkpt>
      <trkpt lat="59.994523" lon="17.7357142">
        <ele>48.2034</ele>
        <time>2012-03-30T17:49:00Z</time>
      </trkpt>
      <trkpt lat="59.9946737" lon="17.7358235">
        <ele>49.1646</ele>
        <time>2012-03-30T17:49:06Z</time>
      </trkpt>
      <trkpt lat="59.9948678" lon="17.7359161">
        <ele>53.4905</ele>
        <time>2012-03-30T17:49:14Z</time>
      </trkpt>
      <trkpt lat="59.9949742" lon="17.7359687">
        <ele>53.9712</ele>
        <time>2012-03-30T17:49:19Z</time>
      </trkpt>
      <trkpt lat="59.995113" lon="17.7359956">
        <ele>54.9324</ele>
        <time>2012-03-30T17:49:25Z</time>
      </trkpt>
      <trkpt lat="59.9952369" lon="17.736038">
        <ele>54.9324</ele>
        <time>2012-03-30T17:49:30Z</time>
      </trkpt>
      <trkpt lat="59.9953293" lon="17.7360308">
        <ele>56.8551</ele>
        <time>2012-03-30T17:49:34Z</time>
      </trkpt>
      <trkpt lat="59.9954736" lon="17.7360649">
        <ele>55.8938</ele>
        <time>2012-03-30T17:49:40Z</time>
      </trkpt>
      <trkpt lat="59.9955942" lon="17.7360502">
        <ele>54.9324</ele>
        <time>2012-03-30T17:49:45Z</time>
      </trkpt>
      <trkpt lat="59.9957443" lon="17.7360622">
        <ele>48.2034</ele>
        <time>2012-03-30T17:49:52Z</time>
      </trkpt>
      <trkpt lat="59.9957672" lon="17.7360593">
        <ele>48.2034</ele>
        <time>2012-03-30T17:49:53Z</time>
      </trkpt>
      <trkpt lat="59.9959039" lon="17.7360359">
        <ele>49.1646</ele>
        <time>2012-03-30T17:49:59Z</time>
      </trkpt>
      <trkpt lat="59.9960407" lon="17.7360406">
        <ele>49.1646</ele>
        <time>2012-03-30T17:50:04Z</time>
      </trkpt>
      <trkpt lat="59.9960584" lon="17.7360437">
        <ele>49.1646</ele>
        <time>2012-03-30T17:50:05Z</time>
      </trkpt>
      <trkpt lat="59.9962323" lon="17.7361204">
        <ele>44.358</ele>
        <time>2012-03-30T17:50:12Z</time>
      </trkpt>
      <trkpt lat="59.9963526" lon="17.736192">
        <ele>43.3966</ele>
        <time>2012-03-30T17:50:17Z</time>
      </trkpt>
      <trkpt lat="59.996394" lon="17.7362275">
        <ele>43.3966</ele>
        <time>2012-03-30T17:50:19Z</time>
      </trkpt>
      <trkpt lat="59.9965151" lon="17.7362997">
        <ele>43.8773</ele>
        <time>2012-03-30T17:50:24Z</time>
      </trkpt>
      <trkpt lat="59.9966112" lon="17.7363172">
        <ele>45.7999</ele>
        <time>2012-03-30T17:50:28Z</time>
      </trkpt>
      <trkpt lat="59.9967047" lon="17.7363613">
        <ele>46.7612</ele>
        <time>2012-03-30T17:50:32Z</time>
      </trkpt>
      <trkpt lat="59.9968432" lon="17.7364049">
        <ele>47.2418</ele>
        <time>2012-03-30T17:50:38Z</time>
      </trkpt>
      <trkpt lat="59.9968855" lon="17.7364092">
        <ele>47.2418</ele>
        <time>2012-03-30T17:50:40Z</time>
      </trkpt>
      <trkpt lat="59.997055" lon="17.7364331">
        <ele>50.126</ele>
        <time>2012-03-30T17:50:47Z</time>
      </trkpt>
      <trkpt lat="59.9971674" lon="17.7364461">
        <ele>51.0872</ele>
        <time>2012-03-30T17:50:52Z</time>
      </trkpt>
      <trkpt lat="59.9973024" lon="17.7364757">
        <ele>53.0098</ele>
        <time>2012-03-30T17:50:57Z</time>
      </trkpt>
      <trkpt lat="59.9974125" lon="17.7365085">
        <ele>51.5679</ele>
        <time>2012-03-30T17:51:02Z</time>
      </trkpt>
      <trkpt lat="59.9975013" lon="17.7365274">
        <ele>52.0486</ele>
        <time>2012-03-30T17:51:06Z</time>
      </trkpt>
      <trkpt lat="59.9976788" lon="17.7365462">
        <ele>52.0486</ele>
        <time>2012-03-30T17:51:13Z</time>
      </trkpt>
      <trkpt lat="59.9978511" lon="17.7365653">
        <ele>51.0872</ele>
        <time>2012-03-30T17:51:20Z</time>
      </trkpt>
      <trkpt lat="59.9979676" lon="17.7365401">
        <ele>49.1646</ele>
        <time>2012-03-30T17:51:25Z</time>
      </trkpt>
      <trkpt lat="59.9980979" lon="17.736546">
        <ele>49.1646</ele>
        <time>2012-03-30T17:51:30Z</time>
      </trkpt>
      <trkpt lat="59.9982527" lon="17.7365743">
        <ele>50.126</ele>
        <time>2012-03-30T17:51:36Z</time>
      </trkpt>
      <trkpt lat="59.9983857" lon="17.7365918">
        <ele>50.6066</ele>
        <time>2012-03-30T17:51:41Z</time>
      </trkpt>
      <trkpt lat="59.9985281" lon="17.7366161">
        <ele>53.0098</ele>
        <time>2012-03-30T17:51:46Z</time>
      </trkpt>
      <trkpt lat="59.9986779" lon="17.7366622">
        <ele>53.4905</ele>
        <time>2012-03-30T17:51:52Z</time>
      </trkpt>
      <trkpt lat="59.9988007" lon="17.7366855">
        <ele>52.0486</ele>
        <time>2012-03-30T17:51:57Z</time>
      </trkpt>
      <trkpt lat="59.9989323" lon="17.736715">
        <ele>52.0486</ele>
        <time>2012-03-30T17:52:02Z</time>
      </trkpt>
      <trkpt lat="59.9990868" lon="17.736735">
        <ele>51.5679</ele>
        <time>2012-03-30T17:52:08Z</time>
      </trkpt>
      <trkpt lat="59.999197" lon="17.7367384">
        <ele>50.6066</ele>
        <time>2012-03-30T17:52:13Z</time>
      </trkpt>
      <trkpt lat="59.9992952" lon="17.736756">
        <ele>50.126</ele>
        <time>2012-03-30T17:52:17Z</time>
      </trkpt>
      <trkpt lat="59.9994292" lon="17.7367959">
        <ele>52.5292</ele>
        <time>2012-03-30T17:52:22Z</time>
      </trkpt>
      <trkpt lat="59.999571" lon="17.7368275">
        <ele>52.0486</ele>
        <time>2012-03-30T17:52:28Z</time>
      </trkpt>
      <trkpt lat="59.9997232" lon="17.7368367">
        <ele>53.9712</ele>
        <time>2012-03-30T17:52:34Z</time>
      </trkpt>
      <trkpt lat="59.9998709" lon="17.736857">
        <ele>54.4518</ele>
        <time>2012-03-30T17:52:40Z</time>
      </trkpt>
      <trkpt lat="60.0000237" lon="17.7368576">
        <ele>54.4518</ele>
        <time>2012-03-30T17:52:46Z</time>
      </trkpt>
      <trkpt lat="60.0001605" lon="17.7368275">
        <ele>51.0872</ele>
        <time>2012-03-30T17:52:52Z</time>
      </trkpt>
      <trkpt lat="60.0002803" lon="17.7367677">
        <ele>48.684</ele>
        <time>2012-03-30T17:52:57Z</time>
      </trkpt>
      <trkpt lat="60.0004115" lon="17.7366954">
        <ele>47.2418</ele>
        <time>2012-03-30T17:53:02Z</time>
      </trkpt>
      <trkpt lat="60.0005356" lon="17.7366072">
        <ele>47.2418</ele>
        <time>2012-03-30T17:53:07Z</time>
      </trkpt>
      <trkpt lat="60.0006395" lon="17.7365348">
        <ele>48.2034</ele>
        <time>2012-03-30T17:53:11Z</time>
      </trkpt>
      <trkpt lat="60.0007676" lon="17.7364455">
        <ele>47.7225</ele>
        <time>2012-03-30T17:53:16Z</time>
      </trkpt>
      <trkpt lat="60.0009269" lon="17.7363675">
        <ele>50.126</ele>
        <time>2012-03-30T17:53:22Z</time>
      </trkpt>
      <trkpt lat="60.0010815" lon="17.7363265">
        <ele>51.5679</ele>
        <time>2012-03-30T17:53:28Z</time>
      </trkpt>
      <trkpt lat="60.001201" lon="17.7362666">
        <ele>53.4905</ele>
        <time>2012-03-30T17:53:33Z</time>
      </trkpt>
      <trkpt lat="60.0013266" lon="17.7361426">
        <ele>53.9712</ele>
        <time>2012-03-30T17:53:39Z</time>
      </trkpt>
      <trkpt lat="60.0014882" lon="17.7359573">
        <ele>55.4131</ele>
        <time>2012-03-30T17:53:46Z</time>
      </trkpt>
      <trkpt lat="60.0015906" lon="17.7358226">
        <ele>54.9324</ele>
        <time>2012-03-30T17:53:51Z</time>
      </trkpt>
      <trkpt lat="60.0017201" lon="17.7356586">
        <ele>54.4518</ele>
        <time>2012-03-30T17:53:57Z</time>
      </trkpt>
      <trkpt lat="60.0018322" lon="17.7354716">
        <ele>52.5292</ele>
        <time>2012-03-30T17:54:02Z</time>
      </trkpt>
      <trkpt lat="60.001932" lon="17.7352552">
        <ele>49.6453</ele>
        <time>2012-03-30T17:54:08Z</time>
      </trkpt>
      <trkpt lat="60.0020107" lon="17.7350498">
        <ele>49.1646</ele>
        <time>2012-03-30T17:54:13Z</time>
      </trkpt>
      <trkpt lat="60.0020833" lon="17.7347666">
        <ele>45.7999</ele>
        <time>2012-03-30T17:54:19Z</time>
      </trkpt>
      <trkpt lat="60.0021399" lon="17.7344375">
        <ele>46.7612</ele>
        <time>2012-03-30T17:54:25Z</time>
      </trkpt>
      <trkpt lat="60.0021797" lon="17.734182">
        <ele>46.2806</ele>
        <time>2012-03-30T17:54:30Z</time>
      </trkpt>
      <trkpt lat="60.0022123" lon="17.734197">
        <ele>47.2418</ele>
        <time>2012-03-30T17:54:33Z</time>
      </trkpt>
      <trkpt lat="60.0022072" lon="17.7343255">
        <ele>49.1646</ele>
        <time>2012-03-30T17:54:36Z</time>
      </trkpt>
      <trkpt lat="60.0021909" lon="17.7345352">
        <ele>53.4905</ele>
        <time>2012-03-30T17:54:41Z</time>
      </trkpt>
      <trkpt lat="60.0021521" lon="17.7347798">
        <ele>55.4131</ele>
        <time>2012-03-30T17:54:47Z</time>
      </trkpt>
      <trkpt lat="60.0021238" lon="17.7349115">
        <ele>54.4518</ele>
        <time>2012-03-30T17:54:50Z</time>
      </trkpt>
      <trkpt lat="60.002045" lon="17.7351575">
        <ele>53.0098</ele>
        <time>2012-03-30T17:54:56Z</time>
      </trkpt>
      <trkpt lat="60.0020357" lon="17.735193">
        <ele>53.0098</ele>
        <time>2012-03-30T17:54:57Z</time>
      </trkpt>
      <trkpt lat="60.0019607" lon="17.7353804">
        <ele>54.4518</ele>
        <time>2012-03-30T17:55:02Z</time>
      </trkpt>
      <trkpt lat="60.0018509" lon="17.7355823">
        <ele>51.5679</ele>
        <time>2012-03-30T17:55:08Z</time>
      </trkpt>
      <trkpt lat="60.0017648" lon="17.7357158">
        <ele>50.126</ele>
        <time>2012-03-30T17:55:12Z</time>
      </trkpt>
      <trkpt lat="60.0016451" lon="17.7358628">
        <ele>46.7612</ele>
        <time>2012-03-30T17:55:18Z</time>
      </trkpt>
      <trkpt lat="60.0015295" lon="17.7359877">
        <ele>47.2418</ele>
        <time>2012-03-30T17:55:24Z</time>
      </trkpt>
      <trkpt lat="60.0014406" lon="17.7361245">
        <ele>49.6453</ele>
        <time>2012-03-30T17:55:29Z</time>
      </trkpt>
      <trkpt lat="60.0012949" lon="17.7362592">
        <ele>51.5679</ele>
        <time>2012-03-30T17:55:36Z</time>
      </trkpt>
      <trkpt lat="60.0011611" lon="17.7363519">
        <ele>52.5292</ele>
        <time>2012-03-30T17:55:42Z</time>
      </trkpt>
      <trkpt lat="60.0010519" lon="17.7364021">
        <ele>56.8551</ele>
        <time>2012-03-30T17:55:47Z</time>
      </trkpt>
      <trkpt lat="60.0010091" lon="17.7364167">
        <ele>56.8551</ele>
        <time>2012-03-30T17:55:49Z</time>
      </trkpt>
      <trkpt lat="60.0008976" lon="17.7364736">
        <ele>58.7777</ele>
        <time>2012-03-30T17:55:54Z</time>
      </trkpt>
      <trkpt lat="60.0008002" lon="17.7365497">
        <ele>59.7391</ele>
        <time>2012-03-30T17:55:58Z</time>
      </trkpt>
      <trkpt lat="60.0006929" lon="17.7366439">
        <ele>55.8938</ele>
        <time>2012-03-30T17:56:03Z</time>
      </trkpt>
      <trkpt lat="60.0005302" lon="17.7367838">
        <ele>50.6066</ele>
        <time>2012-03-30T17:56:10Z</time>
      </trkpt>
      <trkpt lat="60.000419" lon="17.736872">
        <ele>50.6066</ele>
        <time>2012-03-30T17:56:15Z</time>
      </trkpt>
      <trkpt lat="60.0003232" lon="17.7369227">
        <ele>50.6066</ele>
        <time>2012-03-30T17:56:19Z</time>
      </trkpt>
      <trkpt lat="60.000186" lon="17.7369457">
        <ele>52.5292</ele>
        <time>2012-03-30T17:56:24Z</time>
      </trkpt>
      <trkpt lat="60.0000549" lon="17.7369249">
        <ele>53.0098</ele>
        <time>2012-03-30T17:56:29Z</time>
      </trkpt>
      <trkpt lat="59.9999554" lon="17.7369148">
        <ele>53.4905</ele>
        <time>2012-03-30T17:56:33Z</time>
      </trkpt>
      <trkpt lat="59.9998063" lon="17.7369274">
        <ele>56.8551</ele>
        <time>2012-03-30T17:56:39Z</time>
      </trkpt>
      <trkpt lat="59.9997285" lon="17.7369124">
        <ele>58.7777</ele>
        <time>2012-03-30T17:56:42Z</time>
      </trkpt>
      <trkpt lat="59.9996026" lon="17.7368895">
        <ele>60.7003</ele>
        <time>2012-03-30T17:56:47Z</time>
      </trkpt>
      <trkpt lat="59.999502" lon="17.7368637">
        <ele>62.1423</ele>
        <time>2012-03-30T17:56:51Z</time>
      </trkpt>
      <trkpt lat="59.9993824" lon="17.7368348">
        <ele>65.9877</ele>
        <time>2012-03-30T17:56:56Z</time>
      </trkpt>
      <trkpt lat="59.9992575" lon="17.7367905">
        <ele>69.3523</ele>
        <time>2012-03-30T17:57:01Z</time>
      </trkpt>
      <trkpt lat="59.9991627" lon="17.7367896">
        <ele>68.3909</ele>
        <time>2012-03-30T17:57:05Z</time>
      </trkpt>
      <trkpt lat="59.9990633" lon="17.7367726">
        <ele>69.3523</ele>
        <time>2012-03-30T17:57:09Z</time>
      </trkpt>
      <trkpt lat="59.9989119" lon="17.7367553">
        <ele>66.949</ele>
        <time>2012-03-30T17:57:15Z</time>
      </trkpt>
      <trkpt lat="59.9988059" lon="17.7367385">
        <ele>64.0651</ele>
        <time>2012-03-30T17:57:20Z</time>
      </trkpt>
      <trkpt lat="59.9987524" lon="17.7367268">
        <ele>64.5457</ele>
        <time>2012-03-30T17:57:22Z</time>
      </trkpt>
      <trkpt lat="59.9986158" lon="17.7367234">
        <ele>66.4683</ele>
        <time>2012-03-30T17:57:27Z</time>
      </trkpt>
      <trkpt lat="59.9984682" lon="17.7366823">
        <ele>68.8716</ele>
        <time>2012-03-30T17:57:33Z</time>
      </trkpt>
      <trkpt lat="59.9983412" lon="17.7366591">
        <ele>67.4297</ele>
        <time>2012-03-30T17:57:38Z</time>
      </trkpt>
      <trkpt lat="59.9982693" lon="17.7366421">
        <ele>66.949</ele>
        <time>2012-03-30T17:57:41Z</time>
      </trkpt>
      <trkpt lat="59.9981305" lon="17.7366373">
        <ele>63.1036</ele>
        <time>2012-03-30T17:57:47Z</time>
      </trkpt>
      <trkpt lat="59.9980212" lon="17.7366389">
        <ele>60.2197</ele>
        <time>2012-03-30T17:57:52Z</time>
      </trkpt>
      <trkpt lat="59.9978979" lon="17.7366756">
        <ele>60.7003</ele>
        <time>2012-03-30T17:57:58Z</time>
      </trkpt>
      <trkpt lat="59.997876" lon="17.7366802">
        <ele>60.7003</ele>
        <time>2012-03-30T17:57:59Z</time>
      </trkpt>
      <trkpt lat="59.9977326" lon="17.7367098">
        <ele>63.5844</ele>
        <time>2012-03-30T17:58:05Z</time>
      </trkpt>
      <trkpt lat="59.9976259" lon="17.7367465">
        <ele>65.5071</ele>
        <time>2012-03-30T17:58:11Z</time>
      </trkpt>
      <trkpt lat="59.9975119" lon="17.7367285">
        <ele>63.1036</ele>
        <time>2012-03-30T17:58:16Z</time>
      </trkpt>
      <trkpt lat="59.9973829" lon="17.7367135">
        <ele>63.1036</ele>
        <time>2012-03-30T17:58:21Z</time>
      </trkpt>
      <trkpt lat="59.9972737" lon="17.7366926">
        <ele>63.5844</ele>
        <time>2012-03-30T17:58:25Z</time>
      </trkpt>
      <trkpt lat="59.9971589" lon="17.736654">
        <ele>61.181</ele>
        <time>2012-03-30T17:58:30Z</time>
      </trkpt>
      <trkpt lat="59.9970332" lon="17.7366092">
        <ele>59.7391</ele>
        <time>2012-03-30T17:58:35Z</time>
      </trkpt>
      <trkpt lat="59.996903" lon="17.7365876">
        <ele>61.6617</ele>
        <time>2012-03-30T17:58:40Z</time>
      </trkpt>
      <trkpt lat="59.9967887" lon="17.7365634">
        <ele>63.5844</ele>
        <time>2012-03-30T17:58:44Z</time>
      </trkpt>
      <trkpt lat="59.9966567" lon="17.7365234">
        <ele>66.4683</ele>
        <time>2012-03-30T17:58:49Z</time>
      </trkpt>
      <trkpt lat="59.9965322" lon="17.7364662">
        <ele>66.4683</ele>
        <time>2012-03-30T17:58:56Z</time>
      </trkpt>
      <trkpt lat="59.9965105" lon="17.7364479">
        <ele>66.949</ele>
        <time>2012-03-30T17:58:57Z</time>
      </trkpt>
      <trkpt lat="59.9963729" lon="17.7363332">
        <ele>65.5071</ele>
        <time>2012-03-30T17:59:03Z</time>
      </trkpt>
      <trkpt lat="59.996203" lon="17.7362281">
        <ele>68.3909</ele>
        <time>2012-03-30T17:59:09Z</time>
      </trkpt>
      <trkpt lat="59.9960972" lon="17.736179">
        <ele>70.7942</ele>
        <time>2012-03-30T17:59:13Z</time>
      </trkpt>
      <trkpt lat="59.9959776" lon="17.7361463">
        <ele>74.1588</ele>
        <time>2012-03-30T17:59:18Z</time>
      </trkpt>
      <trkpt lat="59.9959025" lon="17.7361307">
        <ele>74.1588</ele>
        <time>2012-03-30T17:59:21Z</time>
      </trkpt>
      <trkpt lat="59.9957458" lon="17.7361487">
        <ele>75.1202</ele>
        <time>2012-03-30T17:59:27Z</time>
      </trkpt>
      <trkpt lat="59.9957238" lon="17.7361618">
        <ele>75.1202</ele>
        <time>2012-03-30T17:59:28Z</time>
      </trkpt>
      <trkpt lat="59.9956233" lon="17.7361717">
        <ele>71.7555</ele>
        <time>2012-03-30T17:59:33Z</time>
      </trkpt>
      <trkpt lat="59.9955117" lon="17.736166">
        <ele>69.3523</ele>
        <time>2012-03-30T17:59:38Z</time>
      </trkpt>
      <trkpt lat="59.9954039" lon="17.7361616">
        <ele>68.3909</ele>
        <time>2012-03-30T17:59:42Z</time>
      </trkpt>
      <trkpt lat="59.9952969" lon="17.7361643">
        <ele>67.9103</ele>
        <time>2012-03-30T17:59:46Z</time>
      </trkpt>
      <trkpt lat="59.9951221" lon="17.7361484">
        <ele>72.2362</ele>
        <time>2012-03-30T17:59:52Z</time>
      </trkpt>
      <trkpt lat="59.9949763" lon="17.7361474">
        <ele>72.2362</ele>
        <time>2012-03-30T17:59:58Z</time>
      </trkpt>
      <trkpt lat="59.994852" lon="17.7361204">
        <ele>73.1976</ele>
        <time>2012-03-30T18:00:03Z</time>
      </trkpt>
      <trkpt lat="59.9947479" lon="17.7360498">
        <ele>69.8329</ele>
        <time>2012-03-30T18:00:08Z</time>
      </trkpt>
      <trkpt lat="59.9946612" lon="17.7359898">
        <ele>69.3523</ele>
        <time>2012-03-30T18:00:12Z</time>
      </trkpt>
      <trkpt lat="59.9945612" lon="17.7359131">
        <ele>69.8329</ele>
        <time>2012-03-30T18:00:17Z</time>
      </trkpt>
      <trkpt lat="59.9944691" lon="17.7358581">
        <ele>68.8716</ele>
        <time>2012-03-30T18:00:21Z</time>
      </trkpt>
      <trkpt lat="59.9943453" lon="17.7357583">
        <ele>68.8716</ele>
        <time>2012-03-30T18:00:27Z</time>
      </trkpt>
      <trkpt lat="59.9942567" lon="17.7357219">
        <ele>64.5457</ele>
        <time>2012-03-30T18:00:32Z</time>
      </trkpt>
      <trkpt lat="59.9941968" lon="17.7357086">
        <ele>63.1036</ele>
        <time>2012-03-30T18:00:35Z</time>
      </trkpt>
      <trkpt lat="59.9941065" lon="17.7357116">
        <ele>62.6229</ele>
        <time>2012-03-30T18:00:39Z</time>
      </trkpt>
      <trkpt lat="59.9939737" lon="17.7357169">
        <ele>65.5071</ele>
        <time>2012-03-30T18:00:45Z</time>
      </trkpt>
      <trkpt lat="59.9938635" lon="17.7356949">
        <ele>70.3135</ele>
        <time>2012-03-30T18:00:49Z</time>
      </trkpt>
      <trkpt lat="59.9937391" lon="17.7356723">
        <ele>71.7555</ele>
        <time>2012-03-30T18:00:54Z</time>
      </trkpt>
      <trkpt lat="59.9936388" lon="17.7356702">
        <ele>73.6782</ele>
        <time>2012-03-30T18:00:59Z</time>
      </trkpt>
      <trkpt lat="59.9935002" lon="17.7356692">
        <ele>78.9655</ele>
        <time>2012-03-30T18:01:04Z</time>
      </trkpt>
      <trkpt lat="59.9934227" lon="17.7356946">
        <ele>80.4075</ele>
        <time>2012-03-30T18:01:08Z</time>
      </trkpt>
      <trkpt lat="59.9933483" lon="17.7357552">
        <ele>77.0428</ele>
        <time>2012-03-30T18:01:13Z</time>
      </trkpt>
      <trkpt lat="59.993301" lon="17.7358229">
        <ele>72.7169</ele>
        <time>2012-03-30T18:01:16Z</time>
      </trkpt>
      <trkpt lat="59.9932278" lon="17.735919">
        <ele>71.2749</ele>
        <time>2012-03-30T18:01:20Z</time>
      </trkpt>
      <trkpt lat="59.9932144" lon="17.7359421">
        <ele>70.3135</ele>
        <time>2012-03-30T18:01:21Z</time>
      </trkpt>
      <trkpt lat="59.9931213" lon="17.7361639">
        <ele>65.9877</ele>
        <time>2012-03-30T18:01:28Z</time>
      </trkpt>
      <trkpt lat="59.9930284" lon="17.7363446">
        <ele>62.6229</ele>
        <time>2012-03-30T18:01:34Z</time>
      </trkpt>
      <trkpt lat="59.9930145" lon="17.7363742">
        <ele>62.6229</ele>
        <time>2012-03-30T18:01:35Z</time>
      </trkpt>
      <trkpt lat="59.9929289" lon="17.7365812">
        <ele>60.7003</ele>
        <time>2012-03-30T18:01:41Z</time>
      </trkpt>
      <trkpt lat="59.9928765" lon="17.7367208">
        <ele>61.181</ele>
        <time>2012-03-30T18:01:45Z</time>
      </trkpt>
      <trkpt lat="59.9928285" lon="17.7368335">
        <ele>62.1423</ele>
        <time>2012-03-30T18:01:48Z</time>
      </trkpt>
      <trkpt lat="59.9927244" lon="17.7369715">
        <ele>60.7003</ele>
        <time>2012-03-30T18:01:53Z</time>
      </trkpt>
      <trkpt lat="59.9926016" lon="17.7371454">
        <ele>60.7003</ele>
        <time>2012-03-30T18:01:59Z</time>
      </trkpt>
      <trkpt lat="59.992501" lon="17.7372922">
        <ele>63.1036</ele>
        <time>2012-03-30T18:02:04Z</time>
      </trkpt>
      <trkpt lat="59.9923751" lon="17.7374309">
        <ele>66.949</ele>
        <time>2012-03-30T18:02:09Z</time>
      </trkpt>
      <trkpt lat="59.9922582" lon="17.7375579">
        <ele>74.6395</ele>
        <time>2012-03-30T18:02:13Z</time>
      </trkpt>
      <trkpt lat="59.992108" lon="17.7376406">
        <ele>78.004</ele>
        <time>2012-03-30T18:02:19Z</time>
      </trkpt>
      <trkpt lat="59.9919951" lon="17.7376804">
        <ele>81.8494</ele>
        <time>2012-03-30T18:02:24Z</time>
      </trkpt>
      <trkpt lat="59.9918765" lon="17.7376769">
        <ele>84.2527</ele>
        <time>2012-03-30T18:02:29Z</time>
      </trkpt>
      <trkpt lat="59.9917621" lon="17.7376887">
        <ele>83.772</ele>
        <time>2012-03-30T18:02:34Z</time>
      </trkpt>
      <trkpt lat="59.9916505" lon="17.737707">
        <ele>80.8882</ele>
        <time>2012-03-30T18:02:39Z</time>
      </trkpt>
      <trkpt lat="59.9915016" lon="17.7376887">
        <ele>79.9266</ele>
        <time>2012-03-30T18:02:45Z</time>
      </trkpt>
      <trkpt lat="59.991388" lon="17.737708">
        <ele>79.9266</ele>
        <time>2012-03-30T18:02:50Z</time>
      </trkpt>
      <trkpt lat="59.9913642" lon="17.7377029">
        <ele>80.4075</ele>
        <time>2012-03-30T18:02:51Z</time>
      </trkpt>
      <trkpt lat="59.9912134" lon="17.7377188">
        <ele>77.5234</ele>
        <time>2012-03-30T18:02:57Z</time>
      </trkpt>
      <trkpt lat="59.9911692" lon="17.7377438">
        <ele>78.004</ele>
        <time>2012-03-30T18:02:59Z</time>
      </trkpt>
      <trkpt lat="59.9910228" lon="17.7377837">
        <ele>79.9266</ele>
        <time>2012-03-30T18:03:05Z</time>
      </trkpt>
      <trkpt lat="59.9909435" lon="17.7378257">
        <ele>79.446</ele>
        <time>2012-03-30T18:03:09Z</time>
      </trkpt>
      <trkpt lat="59.9908775" lon="17.7378614">
        <ele>78.4847</ele>
        <time>2012-03-30T18:03:12Z</time>
      </trkpt>
      <trkpt lat="59.9907548" lon="17.737928">
        <ele>78.9655</ele>
        <time>2012-03-30T18:03:18Z</time>
      </trkpt>
      <trkpt lat="59.9906587" lon="17.7380537">
        <ele>80.4075</ele>
        <time>2012-03-30T18:03:23Z</time>
      </trkpt>
      <trkpt lat="59.9905805" lon="17.7381588">
        <ele>82.3301</ele>
        <time>2012-03-30T18:03:27Z</time>
      </trkpt>
      <trkpt lat="59.9904919" lon="17.7382199">
        <ele>78.4847</ele>
        <time>2012-03-30T18:03:33Z</time>
      </trkpt>
      <trkpt lat="59.9904007" lon="17.7382489">
        <ele>75.6008</ele>
        <time>2012-03-30T18:03:38Z</time>
      </trkpt>
      <trkpt lat="59.9902707" lon="17.7382655">
        <ele>77.5234</ele>
        <time>2012-03-30T18:03:43Z</time>
      </trkpt>
      <trkpt lat="59.9901504" lon="17.7382963">
        <ele>79.446</ele>
        <time>2012-03-30T18:03:48Z</time>
      </trkpt>
      <trkpt lat="59.9899938" lon="17.7383657">
        <ele>80.4075</ele>
        <time>2012-03-30T18:03:54Z</time>
      </trkpt>
      <trkpt lat="59.9898842" lon="17.7384155">
        <ele>81.3688</ele>
        <time>2012-03-30T18:03:59Z</time>
      </trkpt>
      <trkpt lat="59.989777" lon="17.7384711">
        <ele>78.9655</ele>
        <time>2012-03-30T18:04:04Z</time>
      </trkpt>
      <trkpt lat="59.9896561" lon="17.73851">
        <ele>78.004</ele>
        <time>2012-03-30T18:04:09Z</time>
      </trkpt>
      <trkpt lat="59.9895263" lon="17.7385253">
        <ele>79.446</ele>
        <time>2012-03-30T18:04:14Z</time>
      </trkpt>
      <trkpt lat="59.9894095" lon="17.7385676">
        <ele>78.9655</ele>
        <time>2012-03-30T18:04:19Z</time>
      </trkpt>
      <trkpt lat="59.9892931" lon="17.7386023">
        <ele>77.0428</ele>
        <time>2012-03-30T18:04:24Z</time>
      </trkpt>
      <trkpt lat="59.9891682" lon="17.7386338">
        <ele>76.5621</ele>
        <time>2012-03-30T18:04:30Z</time>
      </trkpt>
      <trkpt lat="59.9890567" lon="17.7387102">
        <ele>78.4847</ele>
        <time>2012-03-30T18:04:35Z</time>
      </trkpt>
      <trkpt lat="59.9889423" lon="17.7387802">
        <ele>82.3301</ele>
        <time>2012-03-30T18:04:40Z</time>
      </trkpt>
      <trkpt lat="59.9888295" lon="17.738856">
        <ele>78.9655</ele>
        <time>2012-03-30T18:04:46Z</time>
      </trkpt>
      <trkpt lat="59.98872" lon="17.7389573">
        <ele>75.1202</ele>
        <time>2012-03-30T18:04:52Z</time>
      </trkpt>
      <trkpt lat="59.9886311" lon="17.7390571">
        <ele>75.1202</ele>
        <time>2012-03-30T18:04:56Z</time>
      </trkpt>
      <trkpt lat="59.9884989" lon="17.7391274">
        <ele>77.0428</ele>
        <time>2012-03-30T18:05:01Z</time>
      </trkpt>
      <trkpt lat="59.9884736" lon="17.7391388">
        <ele>77.0428</ele>
        <time>2012-03-30T18:05:02Z</time>
      </trkpt>
      <trkpt lat="59.9883323" lon="17.7392015">
        <ele>77.5234</ele>
        <time>2012-03-30T18:05:08Z</time>
      </trkpt>
      <trkpt lat="59.9882235" lon="17.7392609">
        <ele>81.3688</ele>
        <time>2012-03-30T18:05:12Z</time>
      </trkpt>
      <trkpt lat="59.9881031" lon="17.7392891">
        <ele>83.772</ele>
        <time>2012-03-30T18:05:17Z</time>
      </trkpt>
      <trkpt lat="59.9879794" lon="17.7393476">
        <ele>80.4075</ele>
        <time>2012-03-30T18:05:23Z</time>
      </trkpt>
      <trkpt lat="59.9878789" lon="17.7393817">
        <ele>80.4075</ele>
        <time>2012-03-30T18:05:27Z</time>
      </trkpt>
      <trkpt lat="59.9877423" lon="17.739399">
        <ele>81.8494</ele>
        <time>2012-03-30T18:05:32Z</time>
      </trkpt>
      <trkpt lat="59.9877277" lon="17.7394072">
        <ele>81.3688</ele>
        <time>2012-03-30T18:05:33Z</time>
      </trkpt>
      <trkpt lat="59.9876184" lon="17.7394191">
        <ele>79.9266</ele>
        <time>2012-03-30T18:05:38Z</time>
      </trkpt>
      <trkpt lat="59.987588" lon="17.7394153">
        <ele>80.4075</ele>
        <time>2012-03-30T18:05:39Z</time>
      </trkpt>
      <trkpt lat="59.9874713" lon="17.7394093">
        <ele>77.0428</ele>
        <time>2012-03-30T18:05:44Z</time>
      </trkpt>
      <trkpt lat="59.9873346" lon="17.7393984">
        <ele>75.6008</ele>
        <time>2012-03-30T18:05:49Z</time>
      </trkpt>
      <trkpt lat="59.9872227" lon="17.7394293">
        <ele>79.446</ele>
        <time>2012-03-30T18:05:53Z</time>
      </trkpt>
      <trkpt lat="59.9871463" lon="17.739436">
        <ele>80.4075</ele>
        <time>2012-03-30T18:05:56Z</time>
      </trkpt>
      <trkpt lat="59.9870065" lon="17.739432">
        <ele>79.446</ele>
        <time>2012-03-30T18:06:02Z</time>
      </trkpt>
      <trkpt lat="59.9869184" lon="17.7393947">
        <ele>77.5234</ele>
        <time>2012-03-30T18:06:06Z</time>
      </trkpt>
      <trkpt lat="59.9868211" lon="17.7393278">
        <ele>76.5621</ele>
        <time>2012-03-30T18:06:10Z</time>
      </trkpt>
      <trkpt lat="59.9867109" lon="17.7392294">
        <ele>77.5234</ele>
        <time>2012-03-30T18:06:16Z</time>
      </trkpt>
      <trkpt lat="59.9866492" lon="17.739174">
        <ele>76.5621</ele>
        <time>2012-03-30T18:06:20Z</time>
      </trkpt>
      <trkpt lat="59.9865534" lon="17.7390628">
        <ele>77.0428</ele>
        <time>2012-03-30T18:06:25Z</time>
      </trkpt>
      <trkpt lat="59.9864555" lon="17.7389801">
        <ele>75.6008</ele>
        <time>2012-03-30T18:06:30Z</time>
      </trkpt>
      <trkpt lat="59.9863665" lon="17.7388698">
        <ele>70.7942</ele>
        <time>2012-03-30T18:06:35Z</time>
      </trkpt>
      <trkpt lat="59.9862903" lon="17.7387963">
        <ele>67.9103</ele>
        <time>2012-03-30T18:06:39Z</time>
      </trkpt>
      <trkpt lat="59.9862048" lon="17.7387472">
        <ele>68.3909</ele>
        <time>2012-03-30T18:06:43Z</time>
      </trkpt>
      <trkpt lat="59.9860919" lon="17.7386653">
        <ele>67.9103</ele>
        <time>2012-03-30T18:06:48Z</time>
      </trkpt>
      <trkpt lat="59.9859308" lon="17.7385825">
        <ele>70.7942</ele>
        <time>2012-03-30T18:06:54Z</time>
      </trkpt>
      <trkpt lat="59.9858452" lon="17.7385405">
        <ele>68.3909</ele>
        <time>2012-03-30T18:06:59Z</time>
      </trkpt>
      <trkpt lat="59.9858272" lon="17.7385327">
        <ele>67.4297</ele>
        <time>2012-03-30T18:07:00Z</time>
      </trkpt>
      <trkpt lat="59.9857298" lon="17.7384693">
        <ele>62.1423</ele>
        <time>2012-03-30T18:07:05Z</time>
      </trkpt>
      <trkpt lat="59.9855914" lon="17.7384053">
        <ele>59.2584</ele>
        <time>2012-03-30T18:07:10Z</time>
      </trkpt>
      <trkpt lat="59.9854241" lon="17.7383774">
        <ele>64.0651</ele>
        <time>2012-03-30T18:07:15Z</time>
      </trkpt>
      <trkpt lat="59.9852915" lon="17.7383297">
        <ele>71.7555</ele>
        <time>2012-03-30T18:07:20Z</time>
      </trkpt>
      <trkpt lat="59.9852542" lon="17.7383085">
        <ele>73.1976</ele>
        <time>2012-03-30T18:07:22Z</time>
      </trkpt>
      <trkpt lat="59.9851683" lon="17.7383108">
        <ele>73.1976</ele>
        <time>2012-03-30T18:07:26Z</time>
      </trkpt>
      <trkpt lat="59.9851412" lon="17.7383119">
        <ele>73.1976</ele>
        <time>2012-03-30T18:07:28Z</time>
      </trkpt>
      <trkpt lat="59.9850662" lon="17.7383285">
        <ele>71.7555</ele>
        <time>2012-03-30T18:07:33Z</time>
      </trkpt>
      <trkpt lat="59.9848718" lon="17.7382458">
        <ele>66.949</ele>
        <time>2012-03-30T18:07:39Z</time>
      </trkpt>
      <trkpt lat="59.9847803" lon="17.7382375">
        <ele>67.4297</ele>
        <time>2012-03-30T18:07:43Z</time>
      </trkpt>
      <trkpt lat="59.9846669" lon="17.7381919">
        <ele>67.4297</ele>
        <time>2012-03-30T18:07:47Z</time>
      </trkpt>
      <trkpt lat="59.9845633" lon="17.7381379">
        <ele>66.949</ele>
        <time>2012-03-30T18:07:51Z</time>
      </trkpt>
      <trkpt lat="59.9844736" lon="17.7381213">
        <ele>68.8716</ele>
        <time>2012-03-30T18:07:54Z</time>
      </trkpt>
      <trkpt lat="59.9843487" lon="17.7381443">
        <ele>71.7555</ele>
        <time>2012-03-30T18:07:59Z</time>
      </trkpt>
      <trkpt lat="59.9842431" lon="17.7381238">
        <ele>71.2749</ele>
        <time>2012-03-30T18:08:03Z</time>
      </trkpt>
      <trkpt lat="59.9840694" lon="17.7380979">
        <ele>77.0428</ele>
        <time>2012-03-30T18:08:09Z</time>
      </trkpt>
      <trkpt lat="59.9839424" lon="17.7381054">
        <ele>76.5621</ele>
        <time>2012-03-30T18:08:14Z</time>
      </trkpt>
      <trkpt lat="59.9838254" lon="17.7381038">
        <ele>72.7169</ele>
        <time>2012-03-30T18:08:19Z</time>
      </trkpt>
      <trkpt lat="59.9837017" lon="17.7381207">
        <ele>71.7555</ele>
        <time>2012-03-30T18:08:24Z</time>
      </trkpt>
      <trkpt lat="59.9835917" lon="17.7381256">
        <ele>66.949</ele>
        <time>2012-03-30T18:08:29Z</time>
      </trkpt>
      <trkpt lat="59.9834284" lon="17.738153">
        <ele>65.0264</ele>
        <time>2012-03-30T18:08:35Z</time>
      </trkpt>
      <trkpt lat="59.9832935" lon="17.7382096">
        <ele>65.9877</ele>
        <time>2012-03-30T18:08:40Z</time>
      </trkpt>
      <trkpt lat="59.9831537" lon="17.738239">
        <ele>69.3523</ele>
        <time>2012-03-30T18:08:45Z</time>
      </trkpt>
      <trkpt lat="59.9830843" lon="17.7382557">
        <ele>69.3523</ele>
        <time>2012-03-30T18:08:48Z</time>
      </trkpt>
      <trkpt lat="59.9829207" lon="17.7382323">
        <ele>73.1976</ele>
        <time>2012-03-30T18:08:54Z</time>
      </trkpt>
      <trkpt lat="59.9827921" lon="17.7382152">
        <ele>73.6782</ele>
        <time>2012-03-30T18:08:59Z</time>
      </trkpt>
      <trkpt lat="59.9827063" lon="17.7381904">
        <ele>77.0428</ele>
        <time>2012-03-30T18:09:03Z</time>
      </trkpt>
      <trkpt lat="59.9825969" lon="17.7381593">
        <ele>78.004</ele>
        <time>2012-03-30T18:09:08Z</time>
      </trkpt>
      <trkpt lat="59.9824741" lon="17.7381515">
        <ele>78.4847</ele>
        <time>2012-03-30T18:09:13Z</time>
      </trkpt>
      <trkpt lat="59.9823434" lon="17.7381696">
        <ele>74.1588</ele>
        <time>2012-03-30T18:09:18Z</time>
      </trkpt>
      <trkpt lat="59.9822895" lon="17.7381871">
        <ele>75.1202</ele>
        <time>2012-03-30T18:09:20Z</time>
      </trkpt>
      <trkpt lat="59.9821907" lon="17.7382473">
        <ele>76.5621</ele>
        <time>2012-03-30T18:09:24Z</time>
      </trkpt>
      <trkpt lat="59.9821648" lon="17.7382581">
        <ele>75.6008</ele>
        <time>2012-03-30T18:09:25Z</time>
      </trkpt>
      <trkpt lat="59.9820415" lon="17.7382974">
        <ele>75.1202</ele>
        <time>2012-03-30T18:09:30Z</time>
      </trkpt>
      <trkpt lat="59.9819027" lon="17.7383395">
        <ele>72.7169</ele>
        <time>2012-03-30T18:09:36Z</time>
      </trkpt>
      <trkpt lat="59.981881" lon="17.7383534">
        <ele>71.7555</ele>
        <time>2012-03-30T18:09:37Z</time>
      </trkpt>
      <trkpt lat="59.9817312" lon="17.7384056">
        <ele>72.2362</ele>
        <time>2012-03-30T18:09:44Z</time>
      </trkpt>
      <trkpt lat="59.981584" lon="17.7385075">
        <ele>71.7555</ele>
        <time>2012-03-30T18:09:50Z</time>
      </trkpt>
      <trkpt lat="59.9814312" lon="17.7385349">
        <ele>70.7942</ele>
        <time>2012-03-30T18:09:56Z</time>
      </trkpt>
      <trkpt lat="59.9812547" lon="17.7386012">
        <ele>73.1976</ele>
        <time>2012-03-30T18:10:02Z</time>
      </trkpt>
      <trkpt lat="59.9812376" lon="17.7386161">
        <ele>72.2362</ele>
        <time>2012-03-30T18:10:03Z</time>
      </trkpt>
      <trkpt lat="59.9811076" lon="17.738687">
        <ele>75.1202</ele>
        <time>2012-03-30T18:10:09Z</time>
      </trkpt>
      <trkpt lat="59.9810502" lon="17.7387012">
        <ele>73.1976</ele>
        <time>2012-03-30T18:10:12Z</time>
      </trkpt>
      <trkpt lat="59.980902" lon="17.7387369">
        <ele>75.1202</ele>
        <time>2012-03-30T18:10:18Z</time>
      </trkpt>
      <trkpt lat="59.9807745" lon="17.7387576">
        <ele>74.6395</ele>
        <time>2012-03-30T18:10:23Z</time>
      </trkpt>
      <trkpt lat="59.9806446" lon="17.7387767">
        <ele>72.7169</ele>
        <time>2012-03-30T18:10:28Z</time>
      </trkpt>
      <trkpt lat="59.9804974" lon="17.7388209">
        <ele>71.7555</ele>
        <time>2012-03-30T18:10:33Z</time>
      </trkpt>
      <trkpt lat="59.9803544" lon="17.7388692">
        <ele>71.2749</ele>
        <time>2012-03-30T18:10:38Z</time>
      </trkpt>
      <trkpt lat="59.9802563" lon="17.7388641">
        <ele>68.8716</ele>
        <time>2012-03-30T18:10:42Z</time>
      </trkpt>
      <trkpt lat="59.9801677" lon="17.7388788">
        <ele>69.3523</ele>
        <time>2012-03-30T18:10:46Z</time>
      </trkpt>
      <trkpt lat="59.9800259" lon="17.7388062">
        <ele>63.1036</ele>
        <time>2012-03-30T18:10:52Z</time>
      </trkpt>
      <trkpt lat="59.9799359" lon="17.7387724">
        <ele>59.7391</ele>
        <time>2012-03-30T18:10:56Z</time>
      </trkpt>
      <trkpt lat="59.9797898" lon="17.7387615">
        <ele>55.8938</ele>
        <time>2012-03-30T18:11:02Z</time>
      </trkpt>
      <trkpt lat="59.9796961" lon="17.7387782">
        <ele>53.9712</ele>
        <time>2012-03-30T18:11:06Z</time>
      </trkpt>
      <trkpt lat="59.9795438" lon="17.7388424">
        <ele>53.9712</ele>
        <time>2012-03-30T18:11:12Z</time>
      </trkpt>
      <trkpt lat="59.979454" lon="17.7389015">
        <ele>52.5292</ele>
        <time>2012-03-30T18:11:16Z</time>
      </trkpt>
      <trkpt lat="59.9793623" lon="17.7389579">
        <ele>51.0872</ele>
        <time>2012-03-30T18:11:20Z</time>
      </trkpt>
    </trkseg>
  </trk>
</gpx>